sensor_id;sensor_type;location;lat;lon;timestamp;temperature;humidity
782;DHT22;374;52.568;13.402;2023-05-10T00:02:09;13.80;71.60
782;DHT22;374;52.568;13.402;2023-05-10T00:04:34;13.80;72.20
782;DHT22;374;52.568;13.402;2023-05-10T00:07:00;13.80;72.20
782;DHT22;374;52.568;13.402;2023-05-10T00:09:25;13.70;72.10
782;DHT22;374;52.568;13.402;2023-05-10T00:11:51;13.70;72.30
782;DHT22;374;52.568;13.402;2023-05-10T00:14:16;13.60;72.70
782;DHT22;374;52.568;13.402;2023-05-10T00:16:42;13.60;72.00
782;DHT22;374;52.568;13.402;2023-05-10T00:19:08;13.50;72.60
782;DHT22;374;52.568;13.402;2023-05-10T00:21:33;13.50;73.20
782;DHT22;374;52.568;13.402;2023-05-10T00:23:59;13.50;72.50
782;DHT22;374;52.568;13.402;2023-05-10T00:26:25;13.50;73.40
782;DHT22;374;52.568;13.402;2023-05-10T00:28:50;13.40;73.00
782;DHT22;374;52.568;13.402;2023-05-10T00:31:16;13.40;73.90
782;DHT22;374;52.568;13.402;2023-05-10T00:33:41;13.40;73.80
782;DHT22;374;52.568;13.402;2023-05-10T00:36:07;13.30;73.10
782;DHT22;374;52.568;13.402;2023-05-10T00:38:33;13.40;75.40
782;DHT22;374;52.568;13.402;2023-05-10T00:40:59;13.30;75.00
782;DHT22;374;52.568;13.402;2023-05-10T00:43:24;13.20;73.40
782;DHT22;374;52.568;13.402;2023-05-10T00:45:50;13.20;74.10
782;DHT22;374;52.568;13.402;2023-05-10T00:48:16;13.10;72.70
782;DHT22;374;52.568;13.402;2023-05-10T00:50:41;13.10;73.30
782;DHT22;374;52.568;13.402;2023-05-10T00:53:08;13.10;73.60
782;DHT22;374;52.568;13.402;2023-05-10T00:55:37;13.00;74.80
782;DHT22;374;52.568;13.402;2023-05-10T00:58:12;13.00;74.50
782;DHT22;374;52.568;13.402;2023-05-10T01:00:38;13.00;75.40
782;DHT22;374;52.568;13.402;2023-05-10T01:03:06;13.00;75.00
782;DHT22;374;52.568;13.402;2023-05-10T01:05:32;12.90;75.50
782;DHT22;374;52.568;13.402;2023-05-10T01:07:57;12.80;75.30
782;DHT22;374;52.568;13.402;2023-05-10T01:10:23;12.90;75.70
782;DHT22;374;52.568;13.402;2023-05-10T01:12:49;12.80;75.80
782;DHT22;374;52.568;13.402;2023-05-10T01:15:16;12.80;75.80
782;DHT22;374;52.568;13.402;2023-05-10T01:17:43;12.80;75.70
782;DHT22;374;52.568;13.402;2023-05-10T01:20:10;12.80;76.80
782;DHT22;374;52.568;13.402;2023-05-10T01:28:28;12.70;76.30
782;DHT22;374;52.568;13.402;2023-05-10T01:31:28;12.60;76.80
782;DHT22;374;52.568;13.402;2023-05-10T01:39:07;12.60;77.80
782;DHT22;374;52.568;13.402;2023-05-10T01:44:42;12.60;78.20
782;DHT22;374;52.568;13.402;2023-05-10T01:47:20;12.60;79.10
782;DHT22;374;52.568;13.402;2023-05-10T01:49:52;12.50;78.20
782;DHT22;374;52.568;13.402;2023-05-10T01:52:20;12.50;79.00
782;DHT22;374;52.568;13.402;2023-05-10T01:55:00;12.40;78.40
782;DHT22;374;52.568;13.402;2023-05-10T01:57:31;12.50;79.60
782;DHT22;374;52.568;13.402;2023-05-10T01:59:59;12.50;79.70
782;DHT22;374;52.568;13.402;2023-05-10T02:02:27;12.40;78.60
782;DHT22;374;52.568;13.402;2023-05-10T02:04:54;12.40;80.10
782;DHT22;374;52.568;13.402;2023-05-10T02:07:21;12.40;79.20
782;DHT22;374;52.568;13.402;2023-05-10T02:09:47;12.40;78.90
782;DHT22;374;52.568;13.402;2023-05-10T02:12:13;12.40;78.20
782;DHT22;374;52.568;13.402;2023-05-10T02:14:41;12.40;79.20
782;DHT22;374;52.568;13.402;2023-05-10T02:17:07;12.30;78.90
782;DHT22;374;52.568;13.402;2023-05-10T02:19:36;12.30;79.80
782;DHT22;374;52.568;13.402;2023-05-10T02:22:02;12.30;79.90
782;DHT22;374;52.568;13.402;2023-05-10T02:24:28;12.30;80.30
782;DHT22;374;52.568;13.402;2023-05-10T02:26:55;12.30;81.50
782;DHT22;374;52.568;13.402;2023-05-10T02:29:23;12.30;79.90
782;DHT22;374;52.568;13.402;2023-05-10T02:31:51;12.20;79.90
782;DHT22;374;52.568;13.402;2023-05-10T02:34:17;12.20;79.20
782;DHT22;374;52.568;13.402;2023-05-10T02:36:44;12.20;80.50
782;DHT22;374;52.568;13.402;2023-05-10T02:39:11;12.20;80.10
782;DHT22;374;52.568;13.402;2023-05-10T02:41:40;12.20;80.40
782;DHT22;374;52.568;13.402;2023-05-10T02:44:07;12.20;81.20
782;DHT22;374;52.568;13.402;2023-05-10T02:46:33;12.20;80.40
782;DHT22;374;52.568;13.402;2023-05-10T02:48:59;12.10;80.70
782;DHT22;374;52.568;13.402;2023-05-10T02:51:29;11.90;80.10
782;DHT22;374;52.568;13.402;2023-05-10T02:53:57;12.00;80.40
782;DHT22;374;52.568;13.402;2023-05-10T02:56:29;12.10;83.00
782;DHT22;374;52.568;13.402;2023-05-10T02:58:56;12.00;81.10
782;DHT22;374;52.568;13.402;2023-05-10T03:01:22;12.00;82.50
782;DHT22;374;52.568;13.402;2023-05-10T03:03:47;11.90;81.60
782;DHT22;374;52.568;13.402;2023-05-10T03:06:13;11.90;82.30
782;DHT22;374;52.568;13.402;2023-05-10T03:08:38;11.90;81.50
782;DHT22;374;52.568;13.402;2023-05-10T03:11:16;11.90;82.30
782;DHT22;374;52.568;13.402;2023-05-10T03:14:02;11.80;81.50
782;DHT22;374;52.568;13.402;2023-05-10T03:16:56;11.80;82.00
782;DHT22;374;52.568;13.402;2023-05-10T03:19:43;11.90;82.80
782;DHT22;374;52.568;13.402;2023-05-10T03:22:11;11.80;81.60
782;DHT22;374;52.568;13.402;2023-05-10T03:24:39;11.80;81.00
782;DHT22;374;52.568;13.402;2023-05-10T03:27:07;11.80;83.00
782;DHT22;374;52.568;13.402;2023-05-10T03:29:33;11.80;81.40
782;DHT22;374;52.568;13.402;2023-05-10T03:31:59;11.80;81.90
782;DHT22;374;52.568;13.402;2023-05-10T03:34:25;11.70;81.60
782;DHT22;374;52.568;13.402;2023-05-10T03:36:51;11.70;83.10
782;DHT22;374;52.568;13.402;2023-05-10T03:39:17;11.70;83.10
782;DHT22;374;52.568;13.402;2023-05-10T03:41:43;11.70;81.50
782;DHT22;374;52.568;13.402;2023-05-10T03:44:08;11.70;82.10
782;DHT22;374;52.568;13.402;2023-05-10T03:46:33;11.70;82.50
782;DHT22;374;52.568;13.402;2023-05-10T03:48:59;11.70;82.50
782;DHT22;374;52.568;13.402;2023-05-10T03:51:24;11.70;82.70
782;DHT22;374;52.568;13.402;2023-05-10T03:53:53;11.70;81.70
782;DHT22;374;52.568;13.402;2023-05-10T03:56:19;11.60;81.80
782;DHT22;374;52.568;13.402;2023-05-10T03:58:46;11.60;81.50
782;DHT22;374;52.568;13.402;2023-05-10T04:01:11;11.60;83.10
782;DHT22;374;52.568;13.402;2023-05-10T04:03:37;11.60;81.80
782;DHT22;374;52.568;13.402;2023-05-10T04:06:03;11.60;81.90
782;DHT22;374;52.568;13.402;2023-05-10T04:08:29;11.60;82.60
782;DHT22;374;52.568;13.402;2023-05-10T04:10:54;11.60;81.90
782;DHT22;374;52.568;13.402;2023-05-10T04:13:21;11.60;82.60
782;DHT22;374;52.568;13.402;2023-05-10T04:15:46;11.60;82.30
782;DHT22;374;52.568;13.402;2023-05-10T04:18:12;11.60;82.00
782;DHT22;374;52.568;13.402;2023-05-10T04:20:37;11.60;82.60
782;DHT22;374;52.568;13.402;2023-05-10T04:23:03;11.60;83.40
782;DHT22;374;52.568;13.402;2023-05-10T04:25:28;11.60;82.20
782;DHT22;374;52.568;13.402;2023-05-10T04:27:54;11.60;82.00
782;DHT22;374;52.568;13.402;2023-05-10T04:30:19;11.60;82.60
782;DHT22;374;52.568;13.402;2023-05-10T04:32:45;11.60;82.00
782;DHT22;374;52.568;13.402;2023-05-10T04:35:10;11.70;84.00
782;DHT22;374;52.568;13.402;2023-05-10T04:37:36;11.70;83.10
782;DHT22;374;52.568;13.402;2023-05-10T04:40:02;11.70;82.30
782;DHT22;374;52.568;13.402;2023-05-10T04:42:28;11.70;82.20
782;DHT22;374;52.568;13.402;2023-05-10T04:44:54;11.70;82.50
782;DHT22;374;52.568;13.402;2023-05-10T04:47:19;11.70;82.10
782;DHT22;374;52.568;13.402;2023-05-10T04:49:45;11.70;84.30
782;DHT22;374;52.568;13.402;2023-05-10T04:52:10;11.80;83.20
782;DHT22;374;52.568;13.402;2023-05-10T04:54:36;11.80;82.30
782;DHT22;374;52.568;13.402;2023-05-10T04:57:02;11.80;83.20
782;DHT22;374;52.568;13.402;2023-05-10T04:59:28;11.80;82.20
782;DHT22;374;52.568;13.402;2023-05-10T05:01:53;11.80;83.60
782;DHT22;374;52.568;13.402;2023-05-10T05:04:19;11.90;84.10
782;DHT22;374;52.568;13.402;2023-05-10T05:06:44;11.90;84.00
782;DHT22;374;52.568;13.402;2023-05-10T05:09:10;11.90;82.50
782;DHT22;374;52.568;13.402;2023-05-10T05:11:35;12.00;84.70
782;DHT22;374;52.568;13.402;2023-05-10T05:14:01;12.00;82.30
782;DHT22;374;52.568;13.402;2023-05-10T05:16:26;12.00;82.50
782;DHT22;374;52.568;13.402;2023-05-10T05:18:52;12.10;82.20
782;DHT22;374;52.568;13.402;2023-05-10T05:21:18;12.10;83.20
782;DHT22;374;52.568;13.402;2023-05-10T05:23:44;12.20;81.80
782;DHT22;374;52.568;13.402;2023-05-10T05:26:10;12.20;81.90
782;DHT22;374;52.568;13.402;2023-05-10T05:28:36;12.20;82.40
782;DHT22;374;52.568;13.402;2023-05-10T05:31:03;12.30;82.20
782;DHT22;374;52.568;13.402;2023-05-10T05:33:29;12.30;82.70
782;DHT22;374;52.568;13.402;2023-05-10T05:35:55;12.30;81.20
782;DHT22;374;52.568;13.402;2023-05-10T05:38:20;12.40;81.60
782;DHT22;374;52.568;13.402;2023-05-10T05:40:46;12.50;81.90
782;DHT22;374;52.568;13.402;2023-05-10T05:43:11;12.50;81.80
782;DHT22;374;52.568;13.402;2023-05-10T05:45:37;12.60;81.60
782;DHT22;374;52.568;13.402;2023-05-10T05:48:02;12.70;81.10
782;DHT22;374;52.568;13.402;2023-05-10T05:50:28;12.70;81.20
782;DHT22;374;52.568;13.402;2023-05-10T05:52:54;12.80;80.80
782;DHT22;374;52.568;13.402;2023-05-10T05:55:19;12.80;80.20
782;DHT22;374;52.568;13.402;2023-05-10T05:57:45;12.90;80.60
782;DHT22;374;52.568;13.402;2023-05-10T06:00:11;13.10;80.20
782;DHT22;374;52.568;13.402;2023-05-10T06:02:36;13.20;79.30
782;DHT22;374;52.568;13.402;2023-05-10T06:05:02;13.40;79.20
782;DHT22;374;52.568;13.402;2023-05-10T06:07:27;13.40;79.60
782;DHT22;374;52.568;13.402;2023-05-10T06:09:53;13.60;79.60
782;DHT22;374;52.568;13.402;2023-05-10T06:12:18;13.70;79.60
782;DHT22;374;52.568;13.402;2023-05-10T06:14:44;13.80;79.60
782;DHT22;374;52.568;13.402;2023-05-10T06:17:09;14.00;78.70
782;DHT22;374;52.568;13.402;2023-05-10T06:19:35;14.10;77.60
782;DHT22;374;52.568;13.402;2023-05-10T06:22:01;14.20;77.40
782;DHT22;374;52.568;13.402;2023-05-10T06:24:26;14.30;77.00
782;DHT22;374;52.568;13.402;2023-05-10T06:26:52;14.50;76.90
782;DHT22;374;52.568;13.402;2023-05-10T06:29:18;14.50;76.90
782;DHT22;374;52.568;13.402;2023-05-10T06:31:43;14.70;77.60
782;DHT22;374;52.568;13.402;2023-05-10T06:34:09;14.80;76.40
782;DHT22;374;52.568;13.402;2023-05-10T06:36:34;15.00;74.30
782;DHT22;374;52.568;13.402;2023-05-10T06:39:00;15.10;74.40
782;DHT22;374;52.568;13.402;2023-05-10T06:41:26;15.20;75.40
782;DHT22;374;52.568;13.402;2023-05-10T06:43:51;15.30;75.30
782;DHT22;374;52.568;13.402;2023-05-10T06:46:17;15.40;74.00
782;DHT22;374;52.568;13.402;2023-05-10T06:48:42;15.50;73.10
782;DHT22;374;52.568;13.402;2023-05-10T06:51:08;15.60;73.50
782;DHT22;374;52.568;13.402;2023-05-10T06:53:33;15.70;72.80
782;DHT22;374;52.568;13.402;2023-05-10T06:55:59;15.80;74.40
782;DHT22;374;52.568;13.402;2023-05-10T06:58:24;15.90;72.60
782;DHT22;374;52.568;13.402;2023-05-10T07:00:50;16.00;72.80
782;DHT22;374;52.568;13.402;2023-05-10T07:03:16;16.10;71.80
782;DHT22;374;52.568;13.402;2023-05-10T07:05:41;16.20;71.90
782;DHT22;374;52.568;13.402;2023-05-10T07:08:07;16.30;72.20
782;DHT22;374;52.568;13.402;2023-05-10T07:10:33;16.40;70.40
782;DHT22;374;52.568;13.402;2023-05-10T07:12:59;16.60;70.40
782;DHT22;374;52.568;13.402;2023-05-10T07:15:25;16.70;71.00
782;DHT22;374;52.568;13.402;2023-05-10T07:17:51;16.70;69.60
782;DHT22;374;52.568;13.402;2023-05-10T07:20:17;16.80;69.80
782;DHT22;374;52.568;13.402;2023-05-10T07:22:42;16.90;70.30
782;DHT22;374;52.568;13.402;2023-05-10T07:25:08;17.00;70.60
782;DHT22;374;52.568;13.402;2023-05-10T07:27:33;17.20;69.90
782;DHT22;374;52.568;13.402;2023-05-10T07:29:59;17.40;69.50
782;DHT22;374;52.568;13.402;2023-05-10T07:32:25;17.60;68.60
782;DHT22;374;52.568;13.402;2023-05-10T07:34:51;17.50;67.80
782;DHT22;374;52.568;13.402;2023-05-10T07:37:17;17.60;67.60
782;DHT22;374;52.568;13.402;2023-05-10T07:39:42;17.70;67.90
782;DHT22;374;52.568;13.402;2023-05-10T07:42:07;17.80;66.80
782;DHT22;374;52.568;13.402;2023-05-10T07:44:33;17.70;67.00
782;DHT22;374;52.568;13.402;2023-05-10T07:46:59;17.90;66.50
782;DHT22;374;52.568;13.402;2023-05-10T07:49:25;18.00;67.10
782;DHT22;374;52.568;13.402;2023-05-10T07:51:50;18.10;65.60
782;DHT22;374;52.568;13.402;2023-05-10T07:54:16;18.30;67.10
782;DHT22;374;52.568;13.402;2023-05-10T07:56:42;18.50;66.10
782;DHT22;374;52.568;13.402;2023-05-10T07:59:15;18.70;64.90
782;DHT22;374;52.568;13.402;2023-05-10T08:01:41;18.50;64.80
782;DHT22;374;52.568;13.402;2023-05-10T08:04:07;18.60;66.10
782;DHT22;374;52.568;13.402;2023-05-10T08:06:34;18.90;64.40
782;DHT22;374;52.568;13.402;2023-05-10T08:08:59;19.10;64.40
782;DHT22;374;52.568;13.402;2023-05-10T08:11:25;19.20;64.10
782;DHT22;374;52.568;13.402;2023-05-10T08:13:51;19.40;64.80
782;DHT22;374;52.568;13.402;2023-05-10T08:16:17;19.70;64.50
782;DHT22;374;52.568;13.402;2023-05-10T08:21:32;20.00;63.40
782;DHT22;374;52.568;13.402;2023-05-10T08:23:58;19.80;62.50
782;DHT22;374;52.568;13.402;2023-05-10T08:26:23;20.10;63.10
782;DHT22;374;52.568;13.402;2023-05-10T08:28:48;20.10;61.40
782;DHT22;374;52.568;13.402;2023-05-10T08:31:15;20.20;63.00
782;DHT22;374;52.568;13.402;2023-05-10T08:33:40;20.30;61.10
782;DHT22;374;52.568;13.402;2023-05-10T08:36:06;20.40;61.60
782;DHT22;374;52.568;13.402;2023-05-10T08:38:31;20.60;60.40
782;DHT22;374;52.568;13.402;2023-05-10T08:40:57;20.70;60.40
782;DHT22;374;52.568;13.402;2023-05-10T08:43:27;20.60;59.80
782;DHT22;374;52.568;13.402;2023-05-10T08:45:54;20.80;59.30
782;DHT22;374;52.568;13.402;2023-05-10T08:48:23;20.90;59.30
782;DHT22;374;52.568;13.402;2023-05-10T08:53:47;20.90;58.50
782;DHT22;374;52.568;13.402;2023-05-10T08:56:13;21.00;58.90
782;DHT22;374;52.568;13.402;2023-05-10T08:58:40;21.30;59.20
782;DHT22;374;52.568;13.402;2023-05-10T09:01:06;21.50;58.40
782;DHT22;374;52.568;13.402;2023-05-10T09:03:32;21.40;57.40
782;DHT22;374;52.568;13.402;2023-05-10T09:05:58;21.50;57.50
782;DHT22;374;52.568;13.402;2023-05-10T09:08:24;21.70;57.40
782;DHT22;374;52.568;13.402;2023-05-10T09:10:54;21.90;56.90
782;DHT22;374;52.568;13.402;2023-05-10T09:13:23;22.00;56.80
782;DHT22;374;52.568;13.402;2023-05-10T09:15:50;22.20;56.30
782;DHT22;374;52.568;13.402;2023-05-10T09:18:16;22.30;56.80
782;DHT22;374;52.568;13.402;2023-05-10T09:20:42;22.70;56.50
782;DHT22;374;52.568;13.402;2023-05-10T09:23:07;22.80;55.20
782;DHT22;374;52.568;13.402;2023-05-10T09:25:33;23.10;55.30
782;DHT22;374;52.568;13.402;2023-05-10T09:27:59;23.30;55.50
782;DHT22;374;52.568;13.402;2023-05-10T09:30:26;23.70;53.90
782;DHT22;374;52.568;13.402;2023-05-10T09:32:55;23.70;53.80
782;DHT22;374;52.568;13.402;2023-05-10T09:35:23;24.10;53.30
782;DHT22;374;52.568;13.402;2023-05-10T09:37:52;24.40;54.00
782;DHT22;374;52.568;13.402;2023-05-10T09:40:23;24.60;53.10
782;DHT22;374;52.568;13.402;2023-05-10T09:43:02;25.00;52.30
782;DHT22;374;52.568;13.402;2023-05-10T09:45:32;25.30;51.60
782;DHT22;374;52.568;13.402;2023-05-10T09:47:58;25.60;50.80
782;DHT22;374;52.568;13.402;2023-05-10T09:50:25;25.80;50.00
782;DHT22;374;52.568;13.402;2023-05-10T09:52:52;26.00;49.80
782;DHT22;374;52.568;13.402;2023-05-10T09:55:20;26.30;49.40
782;DHT22;374;52.568;13.402;2023-05-10T09:57:47;26.50;49.30
782;DHT22;374;52.568;13.402;2023-05-10T10:00:18;26.60;48.20
782;DHT22;374;52.568;13.402;2023-05-10T10:02:48;26.50;49.00
782;DHT22;374;52.568;13.402;2023-05-10T10:05:31;26.00;48.30
782;DHT22;374;52.568;13.402;2023-05-10T10:07:58;25.80;48.90
782;DHT22;374;52.568;13.402;2023-05-10T10:10:27;25.50;49.00
782;DHT22;374;52.568;13.402;2023-05-10T10:12:54;25.40;48.60
782;DHT22;374;52.568;13.402;2023-05-10T10:15:21;24.90;49.10
782;DHT22;374;52.568;13.402;2023-05-10T10:17:46;24.90;50.90
782;DHT22;374;52.568;13.402;2023-05-10T10:20:14;24.70;50.00
782;DHT22;374;52.568;13.402;2023-05-10T10:22:40;24.40;50.70
782;DHT22;374;52.568;13.402;2023-05-10T10:25:06;23.80;50.80
782;DHT22;374;52.568;13.402;2023-05-10T10:30:24;23.20;52.70
782;DHT22;374;52.568;13.402;2023-05-10T10:36:02;22.70;52.80
782;DHT22;374;52.568;13.402;2023-05-10T10:41:37;22.20;54.70
782;DHT22;374;52.568;13.402;2023-05-10T10:55:06;21.50;55.10
782;DHT22;374;52.568;13.402;2023-05-10T10:57:42;21.40;55.70
782;DHT22;374;52.568;13.402;2023-05-10T11:00:35;21.30;55.80
782;DHT22;374;52.568;13.402;2023-05-10T11:03:06;21.10;55.20
782;DHT22;374;52.568;13.402;2023-05-10T11:08:27;21.10;57.30
782;DHT22;374;52.568;13.402;2023-05-10T11:13:43;20.90;55.00
782;DHT22;374;52.568;13.402;2023-05-10T11:16:14;20.90;56.00
782;DHT22;374;52.568;13.402;2023-05-10T11:18:40;20.90;56.10
782;DHT22;374;52.568;13.402;2023-05-10T11:21:08;20.90;57.30
782;DHT22;374;52.568;13.402;2023-05-10T11:23:50;20.90;56.40
782;DHT22;374;52.568;13.402;2023-05-10T11:26:15;20.80;55.90
782;DHT22;374;52.568;13.402;2023-05-10T11:28:45;20.80;56.40
782;DHT22;374;52.568;13.402;2023-05-10T11:31:13;20.80;56.50
782;DHT22;374;52.568;13.402;2023-05-10T11:33:50;20.80;57.40
782;DHT22;374;52.568;13.402;2023-05-10T11:36:18;20.80;56.70
782;DHT22;374;52.568;13.402;2023-05-10T11:38:45;20.70;56.70
782;DHT22;374;52.568;13.402;2023-05-10T11:41:11;20.70;58.70
782;DHT22;374;52.568;13.402;2023-05-10T11:43:38;20.80;58.50
782;DHT22;374;52.568;13.402;2023-05-10T11:46:11;20.70;56.60
782;DHT22;374;52.568;13.402;2023-05-10T11:48:39;20.80;58.10
782;DHT22;374;52.568;13.402;2023-05-10T11:51:05;20.70;57.80
782;DHT22;374;52.568;13.402;2023-05-10T11:53:37;20.70;57.60
782;DHT22;374;52.568;13.402;2023-05-10T11:56:07;20.80;56.80
782;DHT22;374;52.568;13.402;2023-05-10T11:58:33;20.80;57.00
782;DHT22;374;52.568;13.402;2023-05-10T12:01:00;20.70;58.00
782;DHT22;374;52.568;13.402;2023-05-10T12:03:29;20.80;58.20
782;DHT22;374;52.568;13.402;2023-05-10T12:05:56;20.70;57.10
782;DHT22;374;52.568;13.402;2023-05-10T12:08:26;20.70;58.00
782;DHT22;374;52.568;13.402;2023-05-10T12:10:53;20.70;57.70
782;DHT22;374;52.568;13.402;2023-05-10T12:13:20;20.80;57.20
782;DHT22;374;52.568;13.402;2023-05-10T12:15:46;20.80;57.70
782;DHT22;374;52.568;13.402;2023-05-10T12:18:13;20.90;58.90
782;DHT22;374;52.568;13.402;2023-05-10T12:20:39;20.80;56.80
782;DHT22;374;52.568;13.402;2023-05-10T12:23:09;20.80;57.60
782;DHT22;374;52.568;13.402;2023-05-10T12:25:36;20.80;56.50
782;DHT22;374;52.568;13.402;2023-05-10T12:28:07;20.80;56.40
782;DHT22;374;52.568;13.402;2023-05-10T12:30:35;20.80;55.70
782;DHT22;374;52.568;13.402;2023-05-10T12:33:10;20.90;55.80
782;DHT22;374;52.568;13.402;2023-05-10T12:35:54;20.90;56.00
782;DHT22;374;52.568;13.402;2023-05-10T12:38:26;20.90;57.80
782;DHT22;374;52.568;13.402;2023-05-10T12:40:54;20.80;56.90
782;DHT22;374;52.568;13.402;2023-05-10T12:43:20;20.80;58.30
782;DHT22;374;52.568;13.402;2023-05-10T12:45:46;20.80;56.20
782;DHT22;374;52.568;13.402;2023-05-10T12:48:16;20.80;54.40
782;DHT22;374;52.568;13.402;2023-05-10T12:50:42;20.90;55.10
782;DHT22;374;52.568;13.402;2023-05-10T12:53:07;20.90;55.20
782;DHT22;374;52.568;13.402;2023-05-10T12:55:33;20.90;56.40
782;DHT22;374;52.568;13.402;2023-05-10T12:57:59;20.80;57.10
782;DHT22;374;52.568;13.402;2023-05-10T13:00:27;20.80;56.90
782;DHT22;374;52.568;13.402;2023-05-10T13:02:53;20.80;57.50
782;DHT22;374;52.568;13.402;2023-05-10T13:05:19;20.90;57.00
782;DHT22;374;52.568;13.402;2023-05-10T13:07:45;20.90;57.00
782;DHT22;374;52.568;13.402;2023-05-10T13:10:10;20.90;56.10
782;DHT22;374;52.568;13.402;2023-05-10T13:12:37;21.00;55.60
782;DHT22;374;52.568;13.402;2023-05-10T13:15:03;21.00;55.00
782;DHT22;374;52.568;13.402;2023-05-10T13:17:29;21.00;54.30
782;DHT22;374;52.568;13.402;2023-05-10T13:19:54;21.00;54.90
782;DHT22;374;52.568;13.402;2023-05-10T13:22:20;20.90;55.70
782;DHT22;374;52.568;13.402;2023-05-10T13:24:45;20.90;55.90
782;DHT22;374;52.568;13.402;2023-05-10T13:27:11;21.10;55.00
782;DHT22;374;52.568;13.402;2023-05-10T13:29:36;21.00;55.40
782;DHT22;374;52.568;13.402;2023-05-10T13:32:02;21.00;55.70
782;DHT22;374;52.568;13.402;2023-05-10T13:34:27;21.00;56.50
782;DHT22;374;52.568;13.402;2023-05-10T13:36:53;21.00;56.10
782;DHT22;374;52.568;13.402;2023-05-10T13:39:21;21.00;54.30
782;DHT22;374;52.568;13.402;2023-05-10T13:41:46;21.00;54.20
782;DHT22;374;52.568;13.402;2023-05-10T13:44:13;20.90;53.70
782;DHT22;374;52.568;13.402;2023-05-10T13:46:42;21.00;54.40
782;DHT22;374;52.568;13.402;2023-05-10T13:49:09;21.00;54.40
782;DHT22;374;52.568;13.402;2023-05-10T13:51:35;21.00;55.00
782;DHT22;374;52.568;13.402;2023-05-10T13:54:01;21.00;55.00
782;DHT22;374;52.568;13.402;2023-05-10T13:56:27;21.00;55.70
782;DHT22;374;52.568;13.402;2023-05-10T13:58:52;21.00;54.50
782;DHT22;374;52.568;13.402;2023-05-10T14:01:18;21.00;54.40
782;DHT22;374;52.568;13.402;2023-05-10T14:03:43;21.00;54.10
782;DHT22;374;52.568;13.402;2023-05-10T14:06:09;21.00;53.10
782;DHT22;374;52.568;13.402;2023-05-10T14:08:35;21.00;53.70
782;DHT22;374;52.568;13.402;2023-05-10T14:11:01;21.00;54.40
782;DHT22;374;52.568;13.402;2023-05-10T14:13:26;21.10;54.20
782;DHT22;374;52.568;13.402;2023-05-10T14:15:54;21.00;54.50
782;DHT22;374;52.568;13.402;2023-05-10T14:18:20;21.10;54.40
782;DHT22;374;52.568;13.402;2023-05-10T14:20:46;21.10;53.80
782;DHT22;374;52.568;13.402;2023-05-10T14:23:11;21.10;53.50
782;DHT22;374;52.568;13.402;2023-05-10T14:25:39;21.10;55.10
782;DHT22;374;52.568;13.402;2023-05-10T14:28:05;21.10;54.00
782;DHT22;374;52.568;13.402;2023-05-10T14:30:31;21.20;53.70
782;DHT22;374;52.568;13.402;2023-05-10T14:32:57;21.20;53.50
782;DHT22;374;52.568;13.402;2023-05-10T14:35:23;21.20;53.00
782;DHT22;374;52.568;13.402;2023-05-10T14:37:49;21.20;54.10
782;DHT22;374;52.568;13.402;2023-05-10T14:40:14;21.20;54.80
782;DHT22;374;52.568;13.402;2023-05-10T14:42:41;21.20;53.30
782;DHT22;374;52.568;13.402;2023-05-10T14:45:07;21.20;53.50
782;DHT22;374;52.568;13.402;2023-05-10T14:47:34;21.20;53.30
782;DHT22;374;52.568;13.402;2023-05-10T14:49:59;21.20;52.50
782;DHT22;374;52.568;13.402;2023-05-10T14:52:25;21.20;53.20
782;DHT22;374;52.568;13.402;2023-05-10T14:54:51;21.20;52.00
782;DHT22;374;52.568;13.402;2023-05-10T14:57:16;21.20;53.40
782;DHT22;374;52.568;13.402;2023-05-10T14:59:42;21.20;52.30
782;DHT22;374;52.568;13.402;2023-05-10T15:02:07;21.30;52.30
782;DHT22;374;52.568;13.402;2023-05-10T15:04:33;21.30;51.70
782;DHT22;374;52.568;13.402;2023-05-10T15:06:59;21.30;52.30
782;DHT22;374;52.568;13.402;2023-05-10T15:09:25;21.30;52.00
782;DHT22;374;52.568;13.402;2023-05-10T15:11:51;21.20;52.30
782;DHT22;374;52.568;13.402;2023-05-10T15:14:16;21.30;52.00
782;DHT22;374;52.568;13.402;2023-05-10T15:16:42;21.30;52.80
782;DHT22;374;52.568;13.402;2023-05-10T15:19:07;21.20;53.50
782;DHT22;374;52.568;13.402;2023-05-10T15:21:33;21.20;53.60
782;DHT22;374;52.568;13.402;2023-05-10T15:24:06;21.20;54.00
782;DHT22;374;52.568;13.402;2023-05-10T15:26:32;21.20;53.60
782;DHT22;374;52.568;13.402;2023-05-10T15:28:58;21.20;54.10
782;DHT22;374;52.568;13.402;2023-05-10T15:31:23;21.20;54.30
782;DHT22;374;52.568;13.402;2023-05-10T15:33:49;21.10;53.60
782;DHT22;374;52.568;13.402;2023-05-10T15:36:14;21.10;53.70
782;DHT22;374;52.568;13.402;2023-05-10T15:38:40;21.10;53.60
782;DHT22;374;52.568;13.402;2023-05-10T15:41:06;21.10;54.70
782;DHT22;374;52.568;13.402;2023-05-10T15:43:31;21.10;54.40
782;DHT22;374;52.568;13.402;2023-05-10T15:45:57;21.10;54.20
782;DHT22;374;52.568;13.402;2023-05-10T15:48:22;21.10;54.70
782;DHT22;374;52.568;13.402;2023-05-10T15:50:48;21.00;54.60
782;DHT22;374;52.568;13.402;2023-05-10T15:53:13;21.00;55.90
782;DHT22;374;52.568;13.402;2023-05-10T15:55:39;21.10;54.60
782;DHT22;374;52.568;13.402;2023-05-10T15:58:04;21.10;54.10
782;DHT22;374;52.568;13.402;2023-05-10T16:00:30;21.00;55.60
782;DHT22;374;52.568;13.402;2023-05-10T16:02:55;21.00;55.10
782;DHT22;374;52.568;13.402;2023-05-10T16:05:22;21.00;56.10
782;DHT22;374;52.568;13.402;2023-05-10T16:07:47;20.90;55.70
782;DHT22;374;52.568;13.402;2023-05-10T16:10:13;20.90;56.40
782;DHT22;374;52.568;13.402;2023-05-10T16:12:39;20.90;57.10
782;DHT22;374;52.568;13.402;2023-05-10T16:15:05;20.90;56.90
782;DHT22;374;52.568;13.402;2023-05-10T16:17:31;20.90;57.00
782;DHT22;374;52.568;13.402;2023-05-10T16:19:56;20.90;57.60
782;DHT22;374;52.568;13.402;2023-05-10T16:22:22;20.90;57.50
782;DHT22;374;52.568;13.402;2023-05-10T16:24:51;20.80;58.20
782;DHT22;374;52.568;13.402;2023-05-10T16:27:20;20.80;56.70
782;DHT22;374;52.568;13.402;2023-05-10T16:29:46;20.90;57.50
782;DHT22;374;52.568;13.402;2023-05-10T16:32:12;20.80;57.40
782;DHT22;374;52.568;13.402;2023-05-10T16:34:37;20.80;58.50
782;DHT22;374;52.568;13.402;2023-05-10T16:37:03;20.80;57.40
782;DHT22;374;52.568;13.402;2023-05-10T16:39:28;20.90;59.50
782;DHT22;374;52.568;13.402;2023-05-10T16:41:54;20.80;57.40
782;DHT22;374;52.568;13.402;2023-05-10T16:44:19;20.80;57.90
782;DHT22;374;52.568;13.402;2023-05-10T16:46:45;20.90;57.50
782;DHT22;374;52.568;13.402;2023-05-10T16:49:10;20.80;57.80
782;DHT22;374;52.568;13.402;2023-05-10T16:51:36;20.80;59.00
782;DHT22;374;52.568;13.402;2023-05-10T16:54:02;20.80;60.40
782;DHT22;374;52.568;13.402;2023-05-10T16:56:27;20.80;62.70
782;DHT22;374;52.568;13.402;2023-05-10T16:58:53;20.80;68.80
782;DHT22;374;52.568;13.402;2023-05-10T17:01:19;20.80;69.60